createdAt,value
2022-09-15T00:01:36.865Z,17.97
2022-09-15T00:03:36.818Z,17.95
2022-09-15T00:05:36.197Z,17.91
2022-09-15T00:07:36.188Z,17.88
2022-09-15T00:09:36.182Z,17.75
2022-09-15T00:11:36.257Z,17.69
2022-09-15T00:13:36.240Z,17.61
2022-09-15T00:15:36.218Z,17.67
2022-09-15T00:17:36.242Z,17.66
2022-09-15T00:20:30.609Z,17.3
2022-09-15T00:22:30.609Z,17.02
2022-09-15T00:24:30.651Z,17.07
2022-09-15T00:26:30.582Z,17.25
2022-09-15T00:28:30.606Z,17.27
2022-09-15T00:30:30.638Z,17.23
2022-09-15T00:32:30.574Z,17.3
2022-09-15T00:35:12.903Z,17.09
2022-09-15T00:37:12.894Z,17.19
2022-09-15T00:39:12.834Z,17.12
2022-09-15T00:41:12.873Z,17.15
2022-09-15T00:43:12.884Z,17.03
2022-09-15T00:45:12.852Z,16.99
2022-09-15T00:47:19.462Z,17.01
2022-09-15T00:50:19.864Z,16.91
2022-09-15T00:52:19.927Z,16.89
2022-09-15T00:54:19.881Z,16.93
2022-09-15T00:56:19.867Z,16.94
2022-09-15T00:58:19.911Z,16.89
2022-09-15T01:00:19.965Z,16.88
2022-09-15T01:02:19.916Z,16.97
2022-09-15T01:06:11.249Z,16.98
2022-09-15T01:08:11.315Z,17.01
2022-09-15T01:10:11.236Z,17.03
2022-09-15T01:12:11.295Z,16.96
2022-09-15T01:14:11.238Z,17.01
2022-09-15T01:16:17.284Z,16.95
2022-09-15T01:18:11.314Z,16.92
2022-09-15T01:20:32.803Z,16.86
2022-09-15T01:22:32.779Z,16.78
2022-09-15T01:24:32.771Z,16.74
2022-09-15T01:26:32.778Z,16.65
2022-09-15T01:28:32.775Z,16.71
2022-09-15T01:30:32.834Z,16.67
2022-09-15T01:32:32.817Z,16.58
2022-09-15T01:34:32.781Z,16.57
2022-09-15T01:36:07.008Z,16.57
2022-09-15T01:38:06.997Z,16.4
2022-09-15T01:40:07.049Z,16.42
2022-09-15T01:42:06.976Z,16.35
2022-09-15T01:44:06.992Z,16.23
2022-09-15T01:46:07.049Z,16.21
2022-09-15T01:48:06.975Z,16.27
2022-09-15T01:50:51.574Z,16.3
2022-09-15T01:52:51.544Z,16.4
2022-09-15T01:54:51.567Z,16.41
2022-09-15T01:56:51.568Z,16.25
2022-09-15T01:58:51.522Z,16.2
2022-09-15T02:00:51.531Z,16.26
2022-09-15T02:02:51.591Z,16.24
2022-09-15T02:04:51.538Z,16.22
2022-09-15T02:06:34.070Z,16.26
2022-09-15T02:08:34.068Z,16.21
2022-09-15T02:10:34.017Z,16.11
2022-09-15T02:12:34.062Z,16.14
2022-09-15T02:14:34.062Z,15.94
2022-09-15T02:16:34.125Z,15.85
2022-09-15T02:18:34.019Z,15.92
2022-09-15T02:21:16.817Z,16
2022-09-15T02:23:16.871Z,16
2022-09-15T02:25:16.831Z,16.07
2022-09-15T02:27:16.811Z,16.07
2022-09-15T02:29:16.842Z,16
2022-09-15T02:31:16.845Z,15.94
2022-09-15T02:33:16.816Z,15.94
2022-09-15T02:35:16.806Z,16.09
2022-09-15T02:37:08.117Z,16.11
2022-09-15T02:39:08.131Z,15.9
2022-09-15T02:41:08.147Z,15.94
2022-09-15T02:43:08.099Z,15.86
2022-09-15T02:45:08.100Z,15.91
2022-09-15T02:47:08.114Z,15.85
2022-09-15T02:49:08.101Z,15.75
2022-09-15T02:51:36.751Z,15.65
2022-09-15T02:53:36.730Z,15.44
2022-09-15T02:55:36.745Z,15.42
2022-09-15T02:57:36.727Z,15.52
2022-09-15T02:59:36.769Z,15.59
2022-09-15T03:01:36.749Z,15.56
2022-09-15T03:03:39.878Z,15.71
2022-09-15T03:05:36.731Z,15.69
2022-09-15T03:07:22.326Z,15.6
2022-09-15T03:09:22.287Z,15.48
2022-09-15T03:11:22.343Z,15.56
2022-09-15T03:13:22.317Z,15.55
2022-09-15T03:15:22.273Z,15.54
2022-09-15T03:17:22.289Z,15.49
2022-09-15T03:19:22.321Z,15.57
2022-09-15T03:22:17.781Z,15.33
2022-09-15T03:24:17.734Z,15.2
2022-09-15T03:26:17.741Z,15.26
2022-09-15T03:28:17.767Z,15.3
2022-09-15T03:30:17.701Z,15.46
2022-09-15T03:32:17.759Z,15.44
2022-09-15T03:34:17.714Z,15.43
2022-09-15T03:37:37.184Z,15.42
2022-09-15T03:39:37.111Z,15.39
2022-09-15T03:41:37.130Z,15.4
2022-09-15T03:43:37.124Z,15.22
2022-09-15T03:45:37.156Z,15.2
2022-09-15T03:47:37.095Z,15.1
2022-09-15T03:49:37.148Z,15.14
2022-09-15T03:52:15.798Z,15.28
2022-09-15T03:54:15.801Z,15.28
2022-09-15T03:56:15.810Z,15.3
2022-09-15T03:58:15.796Z,15.35
2022-09-15T04:00:15.864Z,15.29
2022-09-15T04:02:15.867Z,15.25
2022-09-15T04:04:15.823Z,15.24
2022-09-15T04:06:15.835Z,15.2
2022-09-15T04:08:07.462Z,15.2
2022-09-15T04:10:07.476Z,15.16
2022-09-15T04:12:07.424Z,15.2
2022-09-15T04:14:07.404Z,15.28
2022-09-15T04:16:07.485Z,15.3
2022-09-15T04:18:07.407Z,15.29
2022-09-15T04:20:07.407Z,15.19
2022-09-15T04:22:27.979Z,15.23
2022-09-15T04:24:27.917Z,15.33
2022-09-15T04:26:27.974Z,15.47
2022-09-15T04:28:27.938Z,15.58
2022-09-15T04:30:27.928Z,15.55
2022-09-15T04:32:28.065Z,15.7
2022-09-15T04:34:27.911Z,15.85
2022-09-15T04:36:27.967Z,15.93
2022-09-15T04:37:48.352Z,16.02
2022-09-15T04:39:48.388Z,16.02
2022-09-15T04:41:48.423Z,16.14
2022-09-15T04:43:48.393Z,16.32
2022-09-15T04:45:48.346Z,16.4
2022-09-15T04:47:48.430Z,16.55
2022-09-15T04:49:48.368Z,16.76
2022-09-15T04:51:48.381Z,17.25
2022-09-15T04:52:54.078Z,17.29
2022-09-15T04:54:54.117Z,17.45
2022-09-15T04:56:54.115Z,17.85
2022-09-15T04:58:54.091Z,18.35
2022-09-15T05:00:54.183Z,18.68
2022-09-15T05:02:54.143Z,19.59
2022-09-15T05:04:54.068Z,20.3
2022-09-15T05:06:54.123Z,20.07
2022-09-15T05:08:32.731Z,19.5
2022-09-15T05:10:32.718Z,20.19
2022-09-15T05:12:32.772Z,19.93
2022-09-15T05:14:32.721Z,19.63
2022-09-15T05:16:32.789Z,19.56
2022-09-15T05:18:32.732Z,19.26
2022-09-15T05:20:32.715Z,18.88
2022-09-15T05:23:45.723Z,20.08
2022-09-15T05:25:45.580Z,20.25
2022-09-15T05:27:45.713Z,19.79
2022-09-15T05:29:45.641Z,19.53
2022-09-15T05:31:45.712Z,19.27
2022-09-15T05:33:45.664Z,18.95
2022-09-15T05:35:45.597Z,18.99
2022-09-15T05:39:17.171Z,18.91
2022-09-15T05:41:17.212Z,19.06
2022-09-15T05:43:17.152Z,19.43
2022-09-15T05:45:17.153Z,19.59
2022-09-15T05:47:17.176Z,19.47
2022-09-15T05:49:17.157Z,18.96
2022-09-15T05:51:17.147Z,19.24
2022-09-15T05:54:15.160Z,19.51
2022-09-15T05:56:15.175Z,19.51
2022-09-15T05:58:15.171Z,19.3
2022-09-15T06:00:15.156Z,19.24
2022-09-15T06:02:15.185Z,19.34
2022-09-15T06:04:15.163Z,19.38
2022-09-15T06:06:15.199Z,19.54
2022-09-15T06:09:28.744Z,19.47
2022-09-15T06:11:28.699Z,19.64
2022-09-15T06:13:28.653Z,19.59
2022-09-15T06:15:28.648Z,19.89
2022-09-15T06:17:28.658Z,20.25
2022-09-15T06:19:28.676Z,19.87
2022-09-15T06:21:28.687Z,20.38
2022-09-15T06:24:35.532Z,20.39
2022-09-15T06:26:35.546Z,20.3
2022-09-15T06:28:35.521Z,20.11
2022-09-15T06:30:35.522Z,20.16
2022-09-15T06:32:35.572Z,19.92
2022-09-15T06:34:35.522Z,20.11
2022-09-15T06:36:35.542Z,20.43
2022-09-15T06:39:08.907Z,20.6
2022-09-15T06:41:08.877Z,20.33
2022-09-15T06:43:08.850Z,20.57
2022-09-15T06:45:08.902Z,20.94
2022-09-15T06:47:08.856Z,20.81
2022-09-15T06:49:08.905Z,20.56
2022-09-15T06:51:08.884Z,20.9
2022-09-15T06:53:08.995Z,21.07
2022-09-15T06:55:06.591Z,20.94
2022-09-15T06:57:06.532Z,21.18
2022-09-15T06:59:06.505Z,20.54
2022-09-15T07:01:06.451Z,21.08
2022-09-15T07:03:06.593Z,21.68
2022-09-15T07:05:06.465Z,21.63
2022-09-15T07:07:06.458Z,21.46
2022-09-15T07:10:08.279Z,21.78
2022-09-15T07:12:08.312Z,21.64
2022-09-15T07:14:08.250Z,21.61
2022-09-15T07:16:08.317Z,21.79
2022-09-15T07:18:08.235Z,22.54
2022-09-15T07:20:08.248Z,22.88
2022-09-15T07:22:08.227Z,23.15
2022-09-15T07:24:38.669Z,23.38
2022-09-15T07:26:38.702Z,23.62
2022-09-15T07:28:38.641Z,23.85
2022-09-15T07:30:38.635Z,23.88
2022-09-15T07:32:38.652Z,24.01
2022-09-15T07:34:38.624Z,24.21
2022-09-15T07:36:38.678Z,23.87
2022-09-15T07:38:38.638Z,24.16
2022-09-15T07:39:56.882Z,24.21
2022-09-15T07:41:56.923Z,24.32
2022-09-15T07:43:56.853Z,24.4
2022-09-15T07:45:56.912Z,23.96
2022-09-15T07:47:56.888Z,23.94
2022-09-15T07:49:56.885Z,23.93
2022-09-15T07:51:56.844Z,24.34
2022-09-15T07:55:12.379Z,24.25
2022-09-15T07:57:12.364Z,23.72
2022-09-15T07:59:12.333Z,24.18
2022-09-15T08:01:12.381Z,24.47
2022-09-15T08:03:12.368Z,24.71
2022-09-15T08:05:12.333Z,24.89
2022-09-15T08:07:12.332Z,24.96
2022-09-15T08:10:36.628Z,25.35
2022-09-15T08:12:36.699Z,25.34
2022-09-15T08:14:36.625Z,25.1
2022-09-15T08:16:36.696Z,24.85
2022-09-15T08:18:36.682Z,24.72
2022-09-15T08:20:36.624Z,24.73
2022-09-15T08:22:36.679Z,25.11
2022-09-15T08:25:49.079Z,25.7
2022-09-15T08:27:49.218Z,25.57
2022-09-15T08:29:49.087Z,24.64
2022-09-15T08:31:49.149Z,25.11
2022-09-15T08:33:49.091Z,25.25
2022-09-15T08:35:49.092Z,25.88
2022-09-15T08:37:49.101Z,25.96
2022-09-15T08:40:38.586Z,25.7
2022-09-15T08:42:41.651Z,25.57
2022-09-15T08:44:38.709Z,25.49
2022-09-15T08:46:38.704Z,25.18
2022-09-15T08:48:38.575Z,25.64
2022-09-15T08:50:38.574Z,25.48
2022-09-15T08:52:38.624Z,25.66
2022-09-15T08:56:19.711Z,26.13
2022-09-15T08:58:19.713Z,27.04
2022-09-15T09:00:19.732Z,27.59
2022-09-15T09:02:19.754Z,27.81
2022-09-15T09:04:19.746Z,27.4
2022-09-15T09:06:19.704Z,27.91
2022-09-15T09:08:19.714Z,27.45
2022-09-15T09:11:33.835Z,27.94
2022-09-15T09:13:35.652Z,28.26
2022-09-15T09:15:34.058Z,28.67
2022-09-15T09:17:33.815Z,27.94
2022-09-15T09:19:33.872Z,28.5
2022-09-15T09:21:33.818Z,28.71
2022-09-15T09:23:33.811Z,28.46
2022-09-15T09:26:10.414Z,28.33
2022-09-15T09:28:07.194Z,28.41
2022-09-15T09:30:07.202Z,28.81
2022-09-15T09:32:07.280Z,28.97
2022-09-15T09:34:07.203Z,28.87
2022-09-15T09:36:07.243Z,28.43
2022-09-15T09:38:07.211Z,28.81
2022-09-15T09:41:08.173Z,28.92
2022-09-15T09:43:08.150Z,29.13
2022-09-15T09:45:08.173Z,29.62
2022-09-15T09:47:08.136Z,29.43
2022-09-15T09:49:08.278Z,29.59
2022-09-15T09:51:08.181Z,29.49
2022-09-15T09:53:08.138Z,29.47
2022-09-15T09:55:08.136Z,29.96
2022-09-15T09:56:33.355Z,30.12
2022-09-15T09:58:33.212Z,29.43
2022-09-15T10:00:33.197Z,29.76
2022-09-15T10:02:33.245Z,29.89
2022-09-15T10:04:33.288Z,30.23
2022-09-15T10:06:33.214Z,30.31
2022-09-15T10:08:33.213Z,30.56
2022-09-15T10:11:24.226Z,30.75
2022-09-15T10:13:24.198Z,31.02
2022-09-15T10:15:24.239Z,31.18
2022-09-15T10:17:24.227Z,31.2
2022-09-15T10:19:24.194Z,31.15
2022-09-15T10:21:24.253Z,31.33
2022-09-15T10:23:24.190Z,31.25
2022-09-15T10:25:24.199Z,31.22
2022-09-15T10:27:08.351Z,31.42
2022-09-15T10:29:08.295Z,31.43
2022-09-15T10:31:08.317Z,31.24
2022-09-15T10:33:08.309Z,31.22
2022-09-15T10:35:08.303Z,31.13
2022-09-15T10:37:08.365Z,31.13
2022-09-15T10:39:08.292Z,31.31
2022-09-15T10:41:45.756Z,31.42
2022-09-15T10:43:45.837Z,31.6
2022-09-15T10:45:45.782Z,31.65
2022-09-15T10:47:45.731Z,31.72
2022-09-15T10:49:45.720Z,31.72
2022-09-15T10:51:45.764Z,31.71
2022-09-15T10:53:45.743Z,31.89
2022-09-15T10:55:53.350Z,32.15
2022-09-15T10:57:39.361Z,32.16
2022-09-15T10:59:39.350Z,32.18
2022-09-15T11:01:39.424Z,31.88
2022-09-15T11:03:39.348Z,31.76
2022-09-15T11:05:39.344Z,31.89
2022-09-15T11:07:39.350Z,31.95
2022-09-15T11:09:39.383Z,32.01
2022-09-15T11:12:09.595Z,31.99
2022-09-15T11:14:09.588Z,32.05
2022-09-15T11:16:09.634Z,32.16
2022-09-15T11:18:09.642Z,32.18
2022-09-15T11:20:09.759Z,32.21
2022-09-15T11:22:09.591Z,32.18
2022-09-15T11:24:09.620Z,32.12
2022-09-15T11:26:09.679Z,32.3
2022-09-15T11:27:20.593Z,32.18
2022-09-15T11:29:20.595Z,32.24
2022-09-15T11:31:20.700Z,32.32
2022-09-15T11:33:20.583Z,32.46
2022-09-15T11:35:20.625Z,32.39
2022-09-15T11:37:20.598Z,32.39
2022-09-15T11:39:20.594Z,32.33
2022-09-15T11:41:20.671Z,32.4
2022-09-15T11:42:25.908Z,32.33
2022-09-15T11:44:25.913Z,32.47
2022-09-15T11:46:26.013Z,32.48
2022-09-15T11:48:25.947Z,32.47
2022-09-15T11:50:25.922Z,32.25
2022-09-15T11:52:25.921Z,32.13
2022-09-15T11:54:26.073Z,32.08
2022-09-15T11:56:25.975Z,32.39
2022-09-15T11:58:18.479Z,32.37
2022-09-15T12:00:15.340Z,32.13
2022-09-15T12:02:15.886Z,31.96
2022-09-15T12:04:15.299Z,31.72
2022-09-15T12:06:15.290Z,31.8
2022-09-15T12:08:15.355Z,32
2022-09-15T12:10:15.284Z,32.23
2022-09-15T12:13:18.918Z,32.45
2022-09-15T12:15:18.885Z,32.4
2022-09-15T12:17:18.896Z,32.44
2022-09-15T12:19:18.879Z,32.44
2022-09-15T12:21:18.928Z,32.52
2022-09-15T12:23:18.893Z,32.41
2022-09-15T12:25:18.887Z,32.49
2022-09-15T12:28:25.572Z,32.33
2022-09-15T12:30:25.548Z,32.36
2022-09-15T12:32:25.542Z,32.5
2022-09-15T12:34:25.585Z,32.41
2022-09-15T12:36:25.557Z,32.55
2022-09-15T12:38:25.553Z,32.47
2022-09-15T12:40:25.606Z,32.54
2022-09-15T12:43:52.474Z,32.29
2022-09-15T12:45:52.380Z,32.33
2022-09-15T12:47:52.374Z,32.46
2022-09-15T12:49:52.432Z,32.46
2022-09-15T12:51:52.367Z,32.34
2022-09-15T12:53:52.488Z,32.31
2022-09-15T12:55:52.417Z,32.17
2022-09-15T12:58:32.159Z,32.26
2022-09-15T13:00:32.203Z,32.3
2022-09-15T13:02:32.256Z,32.27
2022-09-15T13:04:32.144Z,32.22
2022-09-15T13:06:32.158Z,32.05
2022-09-15T13:08:32.167Z,31.83
2022-09-15T13:10:32.210Z,31.78
2022-09-15T13:13:56.322Z,31.47
2022-09-15T13:15:56.402Z,31.2
2022-09-15T13:17:56.256Z,31.17
2022-09-15T13:19:56.386Z,31.13
2022-09-15T13:21:56.266Z,30.99
2022-09-15T13:23:56.392Z,31.09
2022-09-15T13:25:56.249Z,31.04
2022-09-15T13:29:21.892Z,31.37
2022-09-15T13:31:21.900Z,31.49
2022-09-15T13:33:21.927Z,31.46
2022-09-15T13:35:21.910Z,31.5
2022-09-15T13:39:21.893Z,31.62
2022-09-15T13:41:21.870Z,31.52
2022-09-15T13:44:00.922Z,31.33
2022-09-15T13:46:00.827Z,31.43
2022-09-15T13:48:00.807Z,31.5
2022-09-15T13:50:00.896Z,31.56
2022-09-15T13:52:00.867Z,31.34
2022-09-15T13:54:00.860Z,31.46
2022-09-15T13:56:00.800Z,31.48
2022-09-15T13:59:51.405Z,31.44
2022-09-15T14:01:52.687Z,31.19
2022-09-15T14:03:51.590Z,31.11
2022-09-15T14:05:51.378Z,31.08
2022-09-15T14:07:52.620Z,30.99
2022-09-15T14:09:51.422Z,30.89
2022-09-15T14:11:51.374Z,30.84
2022-09-15T14:14:58.361Z,30.9
2022-09-15T14:16:58.269Z,30.98
2022-09-15T14:18:58.159Z,31.03
2022-09-15T14:20:58.235Z,30.85
2022-09-15T14:22:58.522Z,30.93
2022-09-15T14:24:58.165Z,31.06
2022-09-15T14:26:58.133Z,31.14
2022-09-15T14:29:33.691Z,31.11
2022-09-15T14:31:33.696Z,31.04
2022-09-15T14:33:37.574Z,31.13
2022-09-15T14:35:33.773Z,31.25
2022-09-15T14:37:33.661Z,31.36
2022-09-15T14:39:33.717Z,31.5
2022-09-15T14:41:33.650Z,31.34
2022-09-15T14:46:52.414Z,31
2022-09-15T14:48:52.433Z,30.79
2022-09-15T14:50:52.474Z,30.78
2022-09-15T14:52:52.617Z,30.75
2022-09-15T14:54:52.470Z,30.68
2022-09-15T14:56:52.418Z,30.69
2022-09-15T15:00:10.855Z,30.63
2022-09-15T15:02:10.864Z,30.47
2022-09-15T15:04:10.854Z,30.41
2022-09-15T15:06:30.197Z,30.33
2022-09-15T15:08:10.834Z,30.18
2022-09-15T15:10:10.835Z,30.06
2022-09-15T15:12:10.800Z,29.98
2022-09-15T15:15:22.938Z,29.81
2022-09-15T15:17:22.934Z,29.85
2022-09-15T15:19:22.906Z,29.88
2022-09-15T15:21:22.968Z,29.71
2022-09-15T15:23:22.922Z,29.75
2022-09-15T15:25:22.919Z,29.56
2022-09-15T15:27:22.944Z,29.46
2022-09-15T15:30:31.582Z,29.31
2022-09-15T15:32:31.643Z,29.38
2022-09-15T15:34:31.585Z,29.45
2022-09-15T15:36:31.605Z,29.39
2022-09-15T15:38:31.595Z,29.35
2022-09-15T15:40:31.636Z,29.43
2022-09-15T15:42:31.629Z,29.44
2022-09-15T15:45:31.775Z,29.42
2022-09-15T15:47:31.789Z,29.22
2022-09-15T15:49:32.497Z,29.11
2022-09-15T15:51:31.749Z,29.08
2022-09-15T15:53:31.753Z,29
2022-09-15T15:55:31.734Z,28.81
2022-09-15T15:57:31.726Z,28.68
2022-09-15T16:00:24.159Z,28.46
2022-09-15T16:02:24.262Z,28.31
2022-09-15T16:04:24.133Z,28.15
2022-09-15T16:06:24.160Z,28.07
2022-09-15T16:08:24.141Z,27.96
2022-09-15T16:10:24.163Z,27.86
2022-09-15T16:12:24.180Z,27.71
2022-09-15T16:14:24.141Z,27.82
2022-09-15T16:15:39.282Z,27.86
2022-09-15T16:17:41.896Z,27.81
2022-09-15T16:19:39.237Z,27.63
2022-09-15T16:21:39.260Z,27.53
2022-09-15T16:23:39.278Z,27.29
2022-09-15T16:25:39.260Z,27.18
2022-09-15T16:27:39.291Z,27.13
2022-09-15T16:30:49.638Z,27.12
2022-09-15T16:32:49.653Z,26.98
2022-09-15T16:34:49.652Z,26.94
2022-09-15T16:36:49.670Z,26.89
2022-09-15T16:38:49.640Z,26.96
2022-09-15T16:40:49.659Z,26.99
2022-09-15T16:42:49.661Z,26.99
2022-09-15T16:45:48.613Z,26.92
2022-09-15T16:47:48.680Z,26.8
2022-09-15T16:49:48.614Z,26.7
2022-09-15T16:51:48.609Z,26.79
2022-09-15T16:53:48.661Z,26.73
2022-09-15T16:55:48.590Z,26.63
2022-09-15T16:57:48.621Z,26.54
2022-09-15T16:59:48.608Z,26.4
2022-09-15T17:01:10.312Z,26.47
2022-09-15T17:03:10.324Z,26.46
2022-09-15T17:05:10.323Z,26.44
2022-09-15T17:07:10.321Z,26.34
2022-09-15T17:09:10.281Z,26.19
2022-09-15T17:11:12.225Z,26.12
2022-09-15T17:13:10.320Z,25.99
2022-09-15T17:17:04.610Z,25.83
2022-09-15T17:19:03.609Z,25.68
2022-09-15T17:21:03.650Z,25.6
2022-09-15T17:23:03.592Z,25.42
2022-09-15T17:25:03.600Z,25.51
2022-09-15T17:27:03.592Z,25.51
2022-09-15T17:29:03.653Z,25.42
2022-09-15T17:31:29.538Z,25.33
2022-09-15T17:33:29.514Z,25.3
2022-09-15T17:35:29.532Z,25.2
2022-09-15T17:37:29.500Z,25.09
2022-09-15T17:39:29.515Z,25.03
2022-09-15T17:41:29.495Z,25
2022-09-15T17:43:29.565Z,24.97
2022-09-15T17:47:08.285Z,24.87
2022-09-15T17:49:08.300Z,24.9
2022-09-15T17:51:08.255Z,24.86
2022-09-15T17:53:10.810Z,24.78
2022-09-15T17:55:08.250Z,24.69
2022-09-15T17:57:08.238Z,24.63
2022-09-15T17:59:10.127Z,24.59
2022-09-15T18:02:34.635Z,24.49
2022-09-15T18:04:34.514Z,24.44
2022-09-15T18:06:34.592Z,24.41
2022-09-15T18:08:34.544Z,24.35
2022-09-15T18:10:34.510Z,24.28
2022-09-15T18:12:34.598Z,24.24
2022-09-15T18:14:34.662Z,24.16
2022-09-15T18:17:00.017Z,24.11
2022-09-15T18:19:00.274Z,24.11
2022-09-15T18:20:59.884Z,24.05
2022-09-15T18:23:00.145Z,24.03
2022-09-15T18:24:59.762Z,23.95
2022-09-15T18:26:59.764Z,23.92
2022-09-15T18:28:59.791Z,23.87
2022-09-15T18:32:31.645Z,23.73
2022-09-15T18:34:31.621Z,23.72
2022-09-15T18:36:31.593Z,23.7
2022-09-15T18:38:31.710Z,23.72
2022-09-15T18:40:31.600Z,23.62
2022-09-15T18:42:31.951Z,23.53
2022-09-15T18:44:31.599Z,23.52
2022-09-15T18:47:37.566Z,23.43
2022-09-15T18:49:37.558Z,23.44
2022-09-15T18:51:51.060Z,23.38
2022-09-15T18:53:37.558Z,23.3
2022-09-15T18:55:37.539Z,23.33
2022-09-15T18:57:37.592Z,23.29
2022-09-15T18:59:37.534Z,23.22
2022-09-15T19:03:03.417Z,23.26
2022-09-15T19:05:03.405Z,23.25
2022-09-15T19:07:03.442Z,23.23
2022-09-15T19:09:03.381Z,23.23
2022-09-15T19:11:03.446Z,23.25
2022-09-15T19:13:03.403Z,23.21
2022-09-15T19:15:03.425Z,23.13
2022-09-15T19:17:49.809Z,23.1
2022-09-15T19:19:49.845Z,23.04
2022-09-15T19:21:49.859Z,23.07
2022-09-15T19:23:49.796Z,23.1
2022-09-15T19:25:49.763Z,23.06
2022-09-15T19:27:49.831Z,23.24
2022-09-15T19:29:49.757Z,23.2
2022-09-15T19:32:37.652Z,23.15
2022-09-15T19:34:37.628Z,23.23
2022-09-15T19:36:37.989Z,23.22
2022-09-15T19:38:37.669Z,23.23
2022-09-15T19:40:37.785Z,23.26
2022-09-15T19:42:37.645Z,23.26
2022-09-15T19:44:37.644Z,23.15
2022-09-15T19:46:37.610Z,23.33
2022-09-15T19:48:46.469Z,23.36
2022-09-15T19:50:43.787Z,23.37
2022-09-15T19:52:43.796Z,23.33
2022-09-15T19:54:43.786Z,23.29
2022-09-15T19:56:43.760Z,23.39
2022-09-15T19:58:43.792Z,23.46
2022-09-15T20:00:43.769Z,23.45
2022-09-15T20:03:25.353Z,23.42
2022-09-15T20:05:25.382Z,23.48
2022-09-15T20:07:25.543Z,23.51
2022-09-15T20:09:25.349Z,23.53
2022-09-15T20:11:25.369Z,23.55
2022-09-15T20:13:25.348Z,23.57
2022-09-15T20:15:25.339Z,23.58
2022-09-15T20:18:47.595Z,23.57
2022-09-15T20:20:47.595Z,23.6
2022-09-15T20:22:47.591Z,23.54
2022-09-15T20:24:47.581Z,23.53
2022-09-15T20:26:47.607Z,23.49
2022-09-15T20:28:47.580Z,23.39
2022-09-15T20:30:47.660Z,23.41
2022-09-15T20:33:22.175Z,23.37
2022-09-15T20:35:22.100Z,23.42
2022-09-15T20:37:22.090Z,23.38
2022-09-15T20:39:22.156Z,23.43
2022-09-15T20:41:22.105Z,23.38
2022-09-15T20:43:22.134Z,23.36
2022-09-15T20:45:22.169Z,23.35
2022-09-15T20:47:22.163Z,23.25
2022-09-15T20:49:08.700Z,23.55
2022-09-15T20:51:08.750Z,23.51
2022-09-15T20:53:08.704Z,23.46
2022-09-15T20:55:08.694Z,23.46
2022-09-15T20:57:08.687Z,23.49
2022-09-15T20:59:08.708Z,23.51
2022-09-15T21:01:08.830Z,23.47
2022-09-15T21:04:05.282Z,23.52
2022-09-15T21:06:05.208Z,23.56
2022-09-15T21:08:05.205Z,23.51
2022-09-15T21:10:05.251Z,23.64
2022-09-15T21:12:05.215Z,23.64
2022-09-15T21:14:05.277Z,23.7
2022-09-15T21:16:05.321Z,23.69
2022-09-15T21:19:25.763Z,23.63
2022-09-15T21:21:25.651Z,23.67
2022-09-15T21:23:25.658Z,23.61
2022-09-15T21:25:25.660Z,23.66
2022-09-15T21:27:25.670Z,23.69
2022-09-15T21:29:25.647Z,23.57
2022-09-15T21:31:25.695Z,23.7
2022-09-15T21:34:06.866Z,23.69
2022-09-15T21:36:06.856Z,23.65
2022-09-15T21:38:07.043Z,23.7
2022-09-15T21:40:06.888Z,23.65
2022-09-15T21:42:06.865Z,23.62
2022-09-15T21:44:06.835Z,23.65
2022-09-15T21:46:06.855Z,23.7
2022-09-15T21:48:06.866Z,23.72
2022-09-15T21:49:47.560Z,23.65
2022-09-15T21:51:47.336Z,23.71
2022-09-15T21:53:47.401Z,23.59
2022-09-15T21:55:47.326Z,23.62
2022-09-15T21:57:47.357Z,23.64
2022-09-15T21:59:47.339Z,23.65
2022-09-15T22:01:47.376Z,23.64
2022-09-15T22:04:34.171Z,23.5
2022-09-15T22:06:34.140Z,23.56
2022-09-15T22:08:34.142Z,23.48
2022-09-15T22:10:34.181Z,23.45
2022-09-15T22:12:34.124Z,23.56
2022-09-15T22:14:34.147Z,23.49
2022-09-15T22:16:34.214Z,23.36
2022-09-15T22:19:52.664Z,23.33
2022-09-15T22:21:52.519Z,23.24
2022-09-15T22:23:52.603Z,23.32
2022-09-15T22:25:52.581Z,23.28
2022-09-15T22:27:52.516Z,23.3
2022-09-15T22:29:52.563Z,23.17
2022-09-15T22:31:52.560Z,23.14
2022-09-15T22:34:52.613Z,23.2
2022-09-15T22:36:52.606Z,23.18
2022-09-15T22:38:52.632Z,23.05
2022-09-15T22:40:52.577Z,23.24
2022-09-15T22:42:52.579Z,23.12
2022-09-15T22:44:52.578Z,23.27
2022-09-15T22:46:52.838Z,23.02
2022-09-15T22:49:57.609Z,23.08
2022-09-15T22:51:57.672Z,23.05
2022-09-15T22:53:57.755Z,22.97
2022-09-15T22:55:57.574Z,22.94
2022-09-15T22:57:57.602Z,22.82
2022-09-15T22:59:57.593Z,23.05
2022-09-15T23:01:57.650Z,23
2022-09-15T23:05:25.983Z,22.92
2022-09-15T23:07:26.011Z,22.93
2022-09-15T23:09:26.051Z,22.92
2022-09-15T23:11:26.009Z,22.87
2022-09-15T23:13:25.963Z,22.83
2022-09-15T23:15:26.029Z,22.76
2022-09-15T23:17:25.985Z,22.92
2022-09-15T23:20:57.584Z,22.71
2022-09-15T23:22:57.592Z,22.72
2022-09-15T23:24:57.587Z,22.76
2022-09-15T23:26:57.585Z,22.8
2022-09-15T23:28:57.564Z,22.62
2022-09-15T23:30:57.638Z,22.64
2022-09-15T23:32:57.557Z,22.5
2022-09-15T23:35:37.937Z,22.55
2022-09-15T23:37:37.927Z,22.56
2022-09-15T23:39:37.960Z,22.64
2022-09-15T23:41:37.974Z,22.7
2022-09-15T23:43:37.926Z,22.7
2022-09-15T23:45:37.953Z,22.55
2022-09-15T23:47:37.930Z,22.65
2022-09-15T23:51:14.323Z,22.72
2022-09-15T23:53:14.288Z,22.79
2022-09-15T23:55:14.319Z,22.76
2022-09-15T23:57:14.273Z,22.78
2022-09-15T23:59:14.279Z,22.73
